Fargo, ND (58102)

12:52 AM CDT on June 26, 2017 (GMT -0500)
Northport | | Change Station

Elev 899 ft 46.91 °N, 96.79 °W | Updated 28 seconds ago

Clear
Clear
47.1 °F
Feels Like 47 °F
N
0.0
Wind Variable Wind from West

Today
High -- | Low -- °F
--% Chance of Precip.
Yesterday
High -- | Low -- °F
Precip. -- in
Pressure 30.21 in
Visibility 10.0 miles
Clouds Clear
Windchill 47 °F
Dew Point 40 °F
Humidity 79%
Rainfall 0.00 in
Snow Depth Not available.
5:34 AM 9:26 PM
Waxing Crescent, 7% visible
METAR KFAR 260453Z 32004KT 10SM CLR 10/04 A3020 RMK AO2 SLP229 T01000039
Pressure 30.21 in
Visibility 10.0 miles
Clouds Clear
Windchill 47 °F
Dew Point 40 °F
Humidity 79%
Rainfall 0.00 in
Snow Depth Not available.
5:34 AM 9:26 PM
Waxing Crescent, 7% visible
METAR KFAR 260453Z 32004KT 10SM CLR 10/04 A3020 RMK AO2 SLP229 T01000039

Get Severe Weather Alerts

Thanks for signing up!

Be on the lookout for a verification email in your inbox.

You'll start receiving the daily forecast at 6 AM.

×

10-Day Weather Forecast

Almanac

Astronomy

Jun. 26, 2017 Rise Set
Actual Time
Civil Twilight
Nautical Twilight
Astronomical Twilight
Moon
Length of Visible Light
Length of Day
Tomorrow will be .
, % of the Moon is Illuminated

Today's Extremes

State Highs State Lows

Community

WunderPhotos

Category 6

Welcome to Category 6. This is the collective home for Weather Underground's featured writeups by Dr. Jeff Masters (right), Bob Henson (left), Chris Burt, and other regular contributors.

Nearby

Air Quality

  Air Quality AQ Index Pollutant
Not available.

Snow Depth

Station Depth Elevation

Earthquake Activity

City Distance Mag. Time & Date
Minimum magnitude displayed is 2.5.

Coastal Water Temperatures

Place Temperature

Stations

Nearby Weather Stations

Station Location Temp. Windchill Dew Point Humidity Wind Precip. Elev Updated Type
                   

Watches & Warnings

There are currently no watches in effect.